Heafford Junction, Wisconsin
Current Conditions -  °F | °C
As of 5:35 PM on Saturday 25 Oct 2014 (Local Time) from KTKV Reporting Station
Clear Clear  
Wind Chill: 55°   Ceiling: Unl
Heat Index: 55°   Visibility: 10mi
Dew Point: 21°   Wind: 10mph
Humidity: 26%   Direction: 290°WNW
Pressure: 29.9"   Gusts: 20mph
Location:  45.55°N, 89.72°W
Report Text: KTKV 252235Z AUTO 29009G17KT 10SM CLR 13/M06 A2990 RMK AO2 T01291063
Loading
Personal Weather Stations






























Interactive Weather Map
Tropical Storm Tracking
New forecast layout! Learn more

10-Day Weather Forecast

Advertisements
Track Severe Weather on mobile